| time (UTC) | temp F | wind direction | speed MPH | gust MPH | rain 1hr in | rain 24hr in | rain mn in | humidity % | barometer mb |
| 20260906051553 | 70 | 0 | 0.0 | 0.0 | 0.00 | 0.22 | 0.00 | 96 | 1013.5 |
| 20260906050051 | 70 | 0 | 0.0 | 0.0 | 0.00 | 0.22 | 0.00 | 96 | 1013.6 |
| 20260906044550 | 71 | 0 | 0.0 | 1.0 | 0.00 | 0.22 | 0.00 | 96 | 1013.5 |
| 20260906043054 | 71 | 0 | 0.0 | 0.0 | 0.00 | 0.22 | 0.00 | 95 | 1013.7 |
| 20260906041558 | 71 | 0 | 0.0 | 1.0 | 0.00 | 0.22 | 0.00 | 95 | 1013.6 |
| 20260906040055 | 71 | 0 | 0.0 | 0.0 | 0.00 | 0.22 | 0.00 | 95 | 1013.8 |
| 20260906034601 | 71 | 0 | 0.0 | 1.0 | 0.00 | 0.22 | 0.22 | 95 | 1013.9 |
| 20260906033056 | 72 | 0 | 0.0 | 1.0 | 0.00 | 0.22 | 0.22 | 95 | 1013.7 |
| 20260906031552 | 72 | 0 | 0.0 | 2.0 | 0.00 | 0.22 | 0.22 | 96 | 1013.9 |
| 20260906030055 | 72 | 0 | 0.0 | 3.0 | 0.00 | 0.22 | 0.22 | 96 | 1013.6 |
| 20260906024557 | 72 | 0 | 0.0 | 2.0 | 0.00 | 0.22 | 0.22 | 96 | 1013.6 |
| 20260906023055 | 72 | 297 | 1.0 | 5.0 | 0.00 | 0.22 | 0.22 | 96 | 1013.7 |
| 20260906021559 | 72 | 27 | 1.0 | 6.0 | 0.00 | 0.22 | 0.22 | 96 | 1013.4 |
| 20260906020052 | 73 | 339 | 0.0 | 1.0 | 0.00 | 0.22 | 0.22 | 95 | 1013.7 |
| 20260906014556 | 73 | 0 | 0.0 | 0.0 | 0.00 | 0.22 | 0.22 | 95 | 1013.3 |
| 20260906013054 | 74 | 0 | 0.0 | 0.0 | 0.00 | 0.22 | 0.22 | 94 | 1013.5 |
| 20260906011553 | 74 | 0 | 0.0 | 0.0 | 0.00 | 0.22 | 0.22 | 94 | 1013.3 |
| 20260906010128 | 74 | 0 | 0.0 | 1.0 | 0.00 | 0.22 | 0.22 | 93 | 1013.1 |
| 20260906004611 | 74 | 307 | 0.0 | 0.0 | 0.00 | 0.22 | 0.22 | 92 | 1013.1 |
| 20260906003052 | 75 | 0 | 0.0 | 0.0 | 0.00 | 0.22 | 0.22 | 91 | 1012.9 |
| 20260906001602 | 76 | 0 | 0.0 | 0.0 | 0.00 | 0.22 | 0.22 | 88 | 1012.6 |
| 20260906000059 | 78 | 0 | 0.0 | 0.0 | 0.00 | 0.22 | 0.22 | 86 | 1012.2 |
| 20260905234556 | 80 | 0 | 0.0 | 0.0 | 0.00 | 0.22 | 0.22 | 81 | 1012.2 |
| 20260905233053 | 83 | 0 | 0.0 | 0.0 | 0.00 | 0.22 | 0.22 | 75 | 1012.1 |
| 20260905231555 | 88 | 0 | 0.0 | 0.0 | 0.00 | 0.22 | 0.22 | 70 | 1012.1 |
| 20260905230056 | 87 | 0 | 0.0 | 2.0 | 0.00 | 0.22 | 0.22 | 68 | 1011.9 |
| 20260905224604 | 86 | 316 | 1.0 | 3.0 | 0.00 | 0.22 | 0.22 | 68 | 1011.9 |
| 20260905223055 | 86 | 305 | 2.0 | 4.0 | 0.00 | 0.22 | 0.22 | 67 | 1012.1 |
| 20260905221601 | 86 | 347 | 0.0 | 4.0 | 0.00 | 0.22 | 0.22 | 68 | 1012.1 |
| 20260905220058 | 87 | 266 | 1.0 | 4.0 | 0.00 | 0.22 | 0.22 | 66 | 1012.3 |
| 20260905214600 | 87 | 267 | 1.0 | 4.0 | 0.00 | 0.22 | 0.22 | 64 | 1012.5 |
| 20260905213100 | 86 | 268 | 2.0 | 4.0 | 0.00 | 0.22 | 0.22 | 68 | 1012.7 |
| 20260905211554 | 85 | 261 | 2.0 | 6.0 | 0.00 | 0.22 | 0.22 | 71 | 1012.8 |
| 20260905210112 | 85 | 280 | 0.0 | 5.0 | 0.00 | 0.22 | 0.22 | 75 | 1012.7 |
| 20260905204551 | 84 | 242 | 0.0 | 1.0 | 0.00 | 0.22 | 0.22 | 79 | 1012.8 |
| 20260905203101 | 81 | 0 | 0.0 | 1.0 | 0.00 | 0.22 | 0.22 | 84 | 1013.0 |
| 20260905201553 | 79 | 0 | 0.0 | 1.0 | 0.00 | 0.22 | 0.22 | 90 | 1013.0 |
| 20260905200114 | 79 | 0 | 0.0 | 2.0 | 0.00 | 0.22 | 0.22 | 90 | 1013.0 |
| 20260905194600 | 78 | 0 | 0.0 | 3.0 | 0.00 | 0.22 | 0.22 | 91 | 1013.2 |
| 20260905193055 | 77 | 0 | 1.0 | 6.0 | 0.00 | 0.22 | 0.22 | 93 | 1013.1 |
| 20260905191553 | 76 | 268 | 1.0 | 3.0 | 0.00 | 0.22 | 0.22 | 97 | 1013.2 |
| 20260905184610 | 75 | 0 | 0.0 | 1.0 | 0.01 | 0.22 | 0.22 | 99 | 1012.4 |
| 20260905183055 | 74 | 0 | 0.0 | 1.0 | 0.04 | 0.22 | 0.22 | 99 | 1012.3 |
| 20260905181555 | 74 | 0 | 0.0 | 1.0 | 0.22 | 0.22 | 0.22 | 99 | 1013.8 |
| 20260905174603 | 71 | 105 | 2.0 | 13.0 | 0.21 | 0.21 | 0.21 | 97 | 1014.5 |
| 20260905173055 | 75 | 359 | 16.0 | 36.0 | 0.15 | 0.15 | 0.15 | 79 | 1015.8 |
| 20260905171553 | 93 | 49 | 4.0 | 11.0 | 0.00 | 0.00 | 0.00 | 58 | 1014.0 |
| 20260905170053 | 93 | 34 | 3.0 | 6.0 | 0.00 | 0.00 | 0.00 | 58 | 1014.2 |
| 20260905164557 | 94 | 294 | 1.0 | 10.0 | 0.00 | 0.00 | 0.00 | 57 | 1014.3 |
| 20260905163056 | 94 | 23 | 2.0 | 9.0 | 0.00 | 0.00 | 0.00 | 56 | 1014.3 |
| 20260905161602 | 94 | 253 | 3.0 | 8.0 | 0.00 | 0.00 | 0.00 | 55 | 1014.5 |
| 20260905160053 | 94 | 274 | 2.0 | 9.0 | 0.00 | 0.00 | 0.00 | 57 | 1014.9 |
| 20260905154602 | 94 | 0 | 4.0 | 8.0 | 0.00 | 0.00 | 0.00 | 57 | 1014.8 |
| 20260905153055 | 94 | 296 | 1.0 | 4.0 | 0.00 | 0.00 | 0.00 | 59 | 1014.5 |
| 20260905151609 | 93 | 333 | 0.0 | 4.0 | 0.00 | 0.00 | 0.00 | 64 | 1014.5 |
| 20260905150058 | 93 | 316 | 1.0 | 4.0 | 0.00 | 0.00 | 0.00 | 65 | 1014.6 |
| 20260905144556 | 92 | 117 | 0.0 | 3.0 | 0.00 | 0.00 | 0.00 | 68 | 1014.6 |
| 20260905143054 | 90 | 260 | 1.0 | 3.0 | 0.00 | 0.00 | 0.00 | 68 | 1014.9 |
| 20260905141601 | 88 | 277 | 0.0 | 3.0 | 0.00 | 0.00 | 0.00 | 71 | 1014.6 |
| 20260905134555 | 85 | 252 | 0.0 | 4.0 | 0.00 | 0.00 | 0.00 | 79 | 1014.8 |
| 20260905133054 | 83 | 269 | 0.0 | 4.0 | 0.00 | 0.00 | 0.00 | 79 | 1014.9 |
| 20260905131607 | 82 | 243 | 0.0 | 3.0 | 0.00 | 0.00 | 0.00 | 81 | 1015.0 |
| 20260905130052 | 81 | 276 | 0.0 | 0.0 | 0.00 | 0.00 | 0.00 | 82 | 1015.1 |
| 20260905124555 | 79 | 0 | 0.0 | 0.0 | 0.00 | 0.00 | 0.00 | 88 | 1015.2 |
| 20260905123110 | 75 | 0 | 0.0 | 0.0 | 0.00 | 0.00 | 0.00 | 91 | 1015.0 |
| 20260905121608 | 74 | 266 | 0.0 | 1.0 | 0.00 | 0.00 | 0.00 | 92 | 1015.1 |
| 20260905120053 | 73 | 0 | 0.0 | 0.0 | 0.00 | 0.00 | 0.00 | 95 | 1014.9 |
| 20260905114558 | 71 | 0 | 0.0 | 0.0 | 0.00 | 0.00 | 0.00 | 97 | 1014.6 |
| 20260905113104 | 70 | 0 | 0.0 | 0.0 | 0.00 | 0.00 | 0.00 | 97 | 1014.6 |
| 20260905111605 | 70 | 0 | 0.0 | 0.0 | 0.00 | 0.00 | 0.00 | 97 | 1014.4 |
| 20260905110052 | 69 | 0 | 0.0 | 0.0 | 0.00 | 0.00 | 0.00 | 97 | 1014.2 |
| 20260905104554 | 70 | 0 | 0.0 | 0.0 | 0.00 | 0.00 | 0.00 | 96 | 1014.1 |
| 20260905103103 | 70 | 0 | 0.0 | 0.0 | 0.00 | 0.00 | 0.00 | 96 | 1014.1 |
| 20260905101555 | 70 | 0 | 0.0 | 0.0 | 0.00 | 0.00 | 0.00 | 96 | 1013.9 |
| 20260905100100 | 71 | 0 | 0.0 | 0.0 | 0.00 | 0.00 | 0.00 | 95 | 1013.9 |
| 20260905094548 | 71 | 0 | 0.0 | 0.0 | 0.00 | 0.00 | 0.00 | 95 | 1013.9 |
| 20260905093058 | 71 | 0 | 0.0 | 1.0 | 0.00 | 0.00 | 0.00 | 96 | 1013.8 |
| 20260905091556 | 71 | 0 | 0.0 | 0.0 | 0.00 | 0.00 | 0.00 | 96 | 1013.8 |
| 20260905090056 | 71 | 0 | 0.0 | 0.0 | 0.00 | 0.00 | 0.00 | 96 | 1013.9 |
| 20260905084605 | 71 | 0 | 0.0 | 0.0 | 0.00 | 0.00 | 0.00 | 95 | 1013.9 |
| 20260905083051 | 71 | 0 | 0.0 | 0.0 | 0.00 | 0.00 | 0.00 | 95 | 1014.2 |
| 20260905081552 | 72 | 0 | 0.0 | 0.0 | 0.00 | 0.00 | 0.00 | 95 | 1014.1 |
| 20260905080133 | 72 | 0 | 0.0 | 0.0 | 0.00 | 0.00 | 0.00 | 95 | 1014.4 |
| 20260905074551 | 72 | 0 | 0.0 | 0.0 | 0.00 | 0.00 | 0.00 | 95 | 1014.5 |
| 20260905073056 | 72 | 0 | 0.0 | 0.0 | 0.00 | 0.00 | 0.00 | 94 | 1014.6 |
| 20260905071555 | 73 | 0 | 0.0 | 0.0 | 0.00 | 0.00 | 0.00 | 93 | 1014.6 |
| 20260905070057 | 73 | 0 | 0.0 | 0.0 | 0.00 | 0.00 | 0.00 | 93 | 1014.8 |
| 20260905064600 | 73 | 0 | 0.0 | 0.0 | 0.00 | 0.00 | 0.00 | 93 | 1015.0 |
| 20260905063058 | 73 | 0 | 0.0 | 0.0 | 0.00 | 0.00 | 0.00 | 93 | 1015.1 |
| 20260905061558 | 73 | 0 | 0.0 | 0.0 | 0.00 | 0.00 | 0.00 | 93 | 1015.2 |
| 20260905060107 | 73 | 0 | 0.0 | 0.0 | 0.00 | 0.00 | 0.00 | 94 | 1015.5 |
| 20260905054557 | 74 | 0 | 0.0 | 1.0 | 0.00 | 0.00 | 0.00 | 94 | 1015.9 |
| 20260905053108 | 74 | 0 | 0.0 | 0.0 | 0.00 | 0.00 | 0.00 | 93 | 1016.1 |